Frazeysburg, OH

12:01 AM EST on March 01, 2015 (GMT -0500)
RandysWeatherOnTheHill | Change Station
CLOSE
Current Station
Personal Weather Station
Location: Reform, OH
Elevation: 1043 ft
Nearby Weather Stations
Active Advisory: Winter Weather Advisory Active Notice: Record Report

Elev 1043 ft 40.15 °N, 82.24 °W | Updated 10 seconds ago

Partly Cloudy
Partly Cloudy
23.1 °F
Feels Like 23 °F
N
0.0
Wind Variable Wind from West
Gusts 2.0 mph

Today
High -- | Low -- °F
--% Chance of Precip.
Yesterday
High -- | Low -- °F
Precip. -- in
7:02 AM 6:20 PM
Waxing Gibbous, 82% visible
Pressure 30.55 in
Visibility 10.0 miles
Clouds Mostly Cloudy 5000 ft
Overcast 7000 ft
Windchill 23 °F
Dew Point 7 °F
Humidity 49%
Rainfall 0.00 in
Snow Depth Not available.
UV 0.0 out of 12
Pollen .40 out of 12
Air Quality Not available.
Flu Activity Not available.
METAR KZZV 010453Z AUTO 00000KT 10SM BKN050 OVC070 M04/M14 A3051 RMK AO2 SLP345 T10441144 410221189 TSNO

More Conditions Fewer Conditions

Pressure 30.55 in
Visibility 10.0 miles
Clouds Mostly Cloudy 5000 ft
Overcast 7000 ft
Windchill 23 °F
Dew Point 7 °F
Humidity 49%
Rainfall 0.00 in
Snow Depth Not available.
UV 0.0 out of 12
Pollen .40 out of 12
Air Quality Not available.
Flu Activity Not available.
METAR KZZV 010453Z AUTO 00000KT 10SM BKN050 OVC070 M04/M14 A3051 RMK AO2 SLP345 T10441144 410221189 TSNO

More Conditions Fewer Conditions

10-Day Weather Forecast

Almanac

Astronomy

Mar. 01, 2015 Rise Set
Actual Time
Civil Twilight
Nautical Twilight
Astronomical Twilight
Moon
Length of Visible Light
Length of Day
Tomorrow will be .
, % of the Moon is Illuminated

Today's Extremes

State Highs State Lows

Community

WunderPhotos

Upload Photos

1,801,317 photos uploaded!

WunderBlogs® & News

Nearby

Air Quality

  Air Quality AQ Index Pollutant
Not available.

Snow Depth

Station Depth Elevation

Earthquake Activity

City Distance Mag. Time & Date
Minimum magnitude displayed is 2.5.

Coastal Water Temperatures

Place Temperature

Nearby Weather Stations

Winter Weather Advisory
Statement as of 9:51 PM EST on February 28, 2015

... Winter Weather Advisory remains in effect from 4 am Sunday to
7 am EST Monday...

* snow accumulation... 2 to 6 inches.

* Snow beginning... late tonight.

* Period of most intense snow... Sunday morning. Rain may mix on
Sunday afternoon... before changing back to snow Sunday night.

* Snow ending... snow will taper off Sunday night.

* Impacts..hazardous travel conditions are expected due to snow
accumulation.

Precautionary/preparedness actions...

A Winter Weather Advisory for snow means that snowfall will cause
travel difficulties. Be prepared for snow covered roads. Report
snow accumulation to the National Weather Service by calling
412-262-1988... posting to the NWS Pittsburgh facebook Page... or
using twitter @nwspittsburgh.